Time;durP1;ratioP1;P1;durP2;ratioP2;P2;SDS_P1;SDS_P2;PMS_P1;PMS_P2;Temp;Humidity;BMP_temperature;BMP_pressure;BME280_temperature;BME280_humidity;BME280_pressure;Samples;Min_cycle;Max_cycle;Signal;HPM_P1;HPM_P2
2023/07/27 00:01:24;;;;;;;1.50;0.90;;;18.50;95.90;;;;;;5047932;28;20486;-85
2023/07/27 00:03:51;;;;;;;1.43;0.90;;;18.50;95.70;;;;;;5052805;28;20459;-85
2023/07/27 00:06:18;;;;;;;1.50;0.90;;;18.50;95.90;;;;;;5046758;28;20545;-84
2023/07/27 00:08:45;;;;;;;1.50;0.90;;;18.40;96.20;;;;;;5041147;28;20478;-85
2023/07/27 00:11:13;;;;;;;1.50;0.90;;;18.40;95.90;;;;;;5064484;28;20470;-84
2023/07/27 00:13:39;;;;;;;1.50;1.00;;;18.40;96.20;;;;;;5056926;28;21767;-85
2023/07/27 00:16:07;;;;;;;1.50;0.90;;;18.40;96.00;;;;;;5050301;28;20490;-84
2023/07/27 00:18:33;;;;;;;1.47;0.90;;;18.40;96.10;;;;;;5049732;28;20463;-84
2023/07/27 00:21:00;;;;;;;1.50;0.90;;;18.40;96.20;;;;;;5050873;28;20485;-84
2023/07/27 00:23:27;;;;;;;1.47;0.90;;;18.40;96.00;;;;;;5038117;28;20463;-84
2023/07/27 00:25:54;;;;;;;1.47;0.90;;;18.40;96.20;;;;;;5050411;28;20478;-83
2023/07/27 00:28:22;;;;;;;1.50;0.90;;;18.40;96.20;;;;;;5038325;28;20466;-86
2023/07/27 00:30:53;;;;;;;1.47;0.90;;;18.40;96.10;;;;;;5043870;28;20479;-85
2023/07/27 00:33:19;;;;;;;1.50;0.90;;;18.40;96.20;;;;;;5037350;28;20520;-83
2023/07/27 00:35:54;;;;;;;1.50;1.00;;;18.40;96.10;;;;;;5055448;28;20458;-83
2023/07/27 00:38:21;;;;;;;1.43;0.90;;;18.40;96.10;;;;;;5046892;28;20494;-83
2023/07/27 00:40:48;;;;;;;1.47;0.90;;;18.40;96.40;;;;;;5057689;28;20484;-85
2023/07/27 00:43:15;;;;;;;1.50;1.00;;;18.30;96.20;;;;;;5055732;28;20478;-83
2023/07/27 00:45:43;;;;;;;1.50;1.00;;;18.30;96.40;;;;;;5054476;28;20489;-83
2023/07/27 00:48:10;;;;;;;1.47;0.90;;;18.30;96.50;;;;;;5028777;28;20486;-83
2023/07/27 00:50:37;;;;;;;1.50;1.00;;;18.30;96.50;;;;;;5062060;28;20489;-83
2023/07/27 00:53:06;;;;;;;1.50;0.90;;;18.30;96.40;;;;;;5026679;28;20475;-83
2023/07/27 00:55:33;;;;;;;1.47;0.90;;;18.30;96.60;;;;;;5060458;28;21035;-84
2023/07/27 00:58:00;;;;;;;1.43;0.90;;;18.30;96.60;;;;;;5028755;28;20490;-83
2023/07/27 01:00:29;;;;;;;1.50;0.90;;;18.30;96.70;;;;;;5051767;28;20528;-83
2023/07/27 01:02:58;;;;;;;1.40;0.90;;;18.30;96.50;;;;;;5029206;28;21023;-83
2023/07/27 01:05:25;;;;;;;1.47;0.90;;;18.30;96.50;;;;;;5058623;28;20521;-83
2023/07/27 01:07:51;;;;;;;1.43;0.90;;;18.30;96.80;;;;;;5026663;28;20487;-83
2023/07/27 01:10:19;;;;;;;1.50;1.00;;;18.20;96.80;;;;;;5067948;28;20927;-83
2023/07/27 01:12:50;;;;;;;1.47;0.90;;;18.20;97.00;;;;;;5031269;28;20481;-84
2023/07/27 01:15:23;;;;;;;1.50;1.00;;;18.20;96.70;;;;;;5064734;28;20454;-83
2023/07/27 01:17:53;;;;;;;1.43;0.90;;;18.20;96.90;;;;;;5030219;28;20960;-84
2023/07/27 01:20:26;;;;;;;1.50;1.00;;;18.20;96.80;;;;;;5070788;28;20496;-83
2023/07/27 01:23:32;;;;;;;1.60;1.20;;;18.20;96.90;;;;;;5029167;28;20573;-84
2023/07/27 01:26:30;;;;;;;1.50;0.90;;;18.20;96.70;;;;;;5046161;28;20488;-83
2023/07/27 01:29:09;;;;;;;1.50;1.00;;;18.20;96.90;;;;;;5045958;28;20454;-83
2023/07/27 01:31:42;;;;;;;1.47;0.93;;;18.20;96.60;;;;;;5051116;28;20487;-83
2023/07/27 01:34:15;;;;;;;1.47;0.90;;;18.20;96.70;;;;;;5052393;28;20470;-83
2023/07/27 01:36:44;;;;;;;1.50;0.90;;;18.20;96.60;;;;;;5046864;28;20500;-83
2023/07/27 01:39:12;;;;;;;1.50;1.10;;;18.20;96.80;;;;;;5056940;28;20806;-83
2023/07/27 01:41:41;;;;;;;1.50;0.90;;;18.20;96.80;;;;;;5048799;28;20482;-83
2023/07/27 01:44:10;;;;;;;1.50;0.90;;;18.10;96.60;;;;;;5050966;28;20469;-83
2023/07/27 01:46:40;;;;;;;1.40;0.90;;;18.10;96.80;;;;;;5046311;28;20489;-83
2023/07/27 01:49:09;;;;;;;1.40;0.90;;;18.10;96.80;;;;;;5060383;28;20552;-83
2023/07/27 01:51:38;;;;;;;1.47;0.90;;;18.10;96.80;;;;;;5052891;28;20486;-83
2023/07/27 01:54:07;;;;;;;1.70;1.57;;;18.10;96.80;;;;;;5045257;28;20553;-83
2023/07/27 01:56:34;;;;;;;1.50;1.00;;;18.10;96.80;;;;;;5045956;28;20519;-83
2023/07/27 01:59:02;;;;;;;1.47;0.90;;;18.10;96.70;;;;;;5058671;28;20475;-83
2023/07/27 02:01:30;;;;;;;1.47;1.00;;;18.10;96.50;;;;;;5049899;28;20486;-83
2023/07/27 02:03:58;;;;;;;1.50;1.00;;;18.10;96.60;;;;;;5064745;28;20469;-83
2023/07/27 02:06:26;;;;;;;2.00;1.57;;;18.10;96.70;;;;;;5055900;28;20520;-83
2023/07/27 02:08:52;;;;;;;1.50;0.90;;;18.10;96.60;;;;;;5062638;28;20453;-83
2023/07/27 02:11:21;;;;;;;1.50;0.90;;;18.10;96.70;;;;;;5052348;28;20783;-83
2023/07/27 02:13:55;;;;;;;1.47;0.90;;;18.10;96.90;;;;;;5055061;28;20516;-84
2023/07/27 02:16:28;;;;;;;1.40;0.90;;;18.10;96.80;;;;;;5049089;28;20481;-84
2023/07/27 02:18:59;;;;;;;1.50;0.97;;;18.10;97.00;;;;;;5059667;28;20467;-83
2023/07/27 02:21:28;;;;;;;1.50;1.00;;;18.10;97.20;;;;;;5049664;28;20866;-83
2023/07/27 02:23:56;;;;;;;1.47;0.90;;;18.10;97.80;;;;;;5061947;28;20603;-83
2023/07/27 02:26:23;;;;;;;1.47;0.90;;;18.10;98.20;;;;;;5057081;28;20477;-83
2023/07/27 02:28:50;;;;;;;1.47;1.00;;;18.00;98.20;;;;;;5058744;28;20951;-84
2023/07/27 02:31:17;;;;;;;1.50;1.00;;;18.00;98.20;;;;;;5045984;28;20561;-83
2023/07/27 02:33:43;;;;;;;1.40;0.90;;;18.00;98.20;;;;;;5055343;28;20465;-83
2023/07/27 02:36:12;;;;;;;1.43;0.90;;;18.00;98.20;;;;;;5055344;28;20573;-83
2023/07/27 02:38:38;;;;;;;1.40;0.90;;;17.90;98.20;;;;;;5057088;28;20960;-83
2023/07/27 02:41:05;;;;;;;1.50;1.00;;;17.90;98.20;;;;;;5043898;28;20478;-83
2023/07/27 02:43:32;;;;;;;1.47;0.90;;;17.90;98.20;;;;;;5043259;28;20466;-84
2023/07/27 02:45:59;;;;;;;1.43;1.00;;;17.90;98.20;;;;;;5037516;28;20478;-84
2023/07/27 02:48:26;;;;;;;1.50;1.10;;;17.90;98.20;;;;;;5049717;28;20567;-84
2023/07/27 02:50:53;;;;;;;1.50;1.00;;;17.80;98.20;;;;;;5037649;28;20482;-84
2023/07/27 02:53:21;;;;;;;1.70;1.50;;;17.80;98.20;;;;;;5048851;28;20466;-86
2023/07/27 02:56:26;;;;;;;1.50;0.90;;;17.70;98.20;;;;;;5037881;28;20466;-85
2023/07/27 02:58:58;;;;;;;1.50;0.90;;;17.70;98.20;;;;;;5040513;28;20814;-84
2023/07/27 03:01:27;;;;;;;1.50;0.90;;;17.60;98.20;;;;;;5041204;28;20572;-85
2023/07/27 03:04:00;;;;;;;1.50;1.07;;;17.60;98.20;;;;;;5052338;28;20469;-85
2023/07/27 03:06:29;;;;;;;1.43;0.90;;;17.50;98.20;;;;;;5039480;28;20474;-85
2023/07/27 03:08:59;;;;;;;1.40;1.00;;;17.50;98.20;;;;;;5049486;28;20454;-85
2023/07/27 03:11:30;;;;;;;1.50;1.00;;;17.40;98.20;;;;;;5041161;28;20501;-84
2023/07/27 03:13:59;;;;;;;1.50;0.90;;;17.40;98.20;;;;;;5049638;28;20976;-84
2023/07/27 03:16:26;;;;;;;1.50;0.90;;;17.40;98.20;;;;;;5045399;28;20474;-83
2023/07/27 03:18:52;;;;;;;1.47;0.90;;;17.40;98.20;;;;;;5051148;28;20463;-84
2023/07/27 03:21:19;;;;;;;1.50;1.00;;;17.40;98.20;;;;;;5050382;28;20479;-83
2023/07/27 03:23:48;;;;;;;1.50;0.90;;;17.40;98.20;;;;;;5048907;28;20892;-83
2023/07/27 03:26:17;;;;;;;1.50;0.90;;;17.40;98.20;;;;;;5038716;28;20474;-83
2023/07/27 03:28:43;;;;;;;1.47;1.00;;;17.30;98.20;;;;;;5051348;28;20529;-84
2023/07/27 03:31:18;;;;;;;1.50;1.00;;;17.20;98.20;;;;;;5043474;28;20474;-83
2023/07/27 03:33:45;;;;;;;1.50;1.10;;;17.10;98.20;;;;;;5055760;28;20536;-83
2023/07/27 03:36:12;;;;;;;1.50;1.00;;;17.10;98.20;;;;;;5039065;28;20549;-84
2023/07/27 03:38:38;;;;;;;1.47;0.97;;;17.00;98.20;;;;;;5050764;28;20487;-84
2023/07/27 03:41:09;;;;;;;1.50;1.00;;;16.90;98.20;;;;;;5047297;28;20565;-83
2023/07/27 03:43:37;;;;;;;1.50;1.00;;;16.80;98.20;;;;;;5046517;28;20466;-84
2023/07/27 03:46:06;;;;;;;1.50;1.03;;;16.70;98.20;;;;;;5038216;28;20482;-84
2023/07/27 03:48:41;;;;;;;1.47;0.90;;;16.70;98.20;;;;;;5046798;28;20466;-85
2023/07/27 03:51:08;;;;;;;1.47;1.00;;;16.70;98.20;;;;;;5047009;28;20641;-84
2023/07/27 03:53:35;;;;;;;1.47;1.00;;;16.60;98.20;;;;;;5050090;28;20466;-84
2023/07/27 03:56:04;;;;;;;1.43;1.00;;;16.60;98.20;;;;;;5043962;28;20544;-84
2023/07/27 03:58:33;;;;;;;1.50;0.90;;;16.60;98.20;;;;;;5048805;28;20489;-84
2023/07/27 04:01:07;;;;;;;1.50;1.00;;;16.60;98.20;;;;;;5048639;28;20466;-84
2023/07/27 04:03:43;;;;;;;1.40;0.90;;;16.60;98.20;;;;;;5035371;28;20470;-84
2023/07/27 04:06:10;;;;;;;1.50;0.90;;;16.50;98.20;;;;;;5050180;28;20483;-83
2023/07/27 04:08:36;;;;;;;1.70;1.30;;;16.50;98.20;;;;;;5042257;28;20469;-84
2023/07/27 04:11:03;;;;;;;1.50;0.90;;;16.50;98.20;;;;;;5047297;28;20482;-84
2023/07/27 04:13:33;;;;;;;1.50;1.00;;;16.50;98.20;;;;;;5054254;28;20842;-84
2023/07/27 04:16:07;;;;;;;1.50;0.90;;;16.40;98.20;;;;;;5046048;28;20466;-85
2023/07/27 04:18:34;;;;;;;1.50;1.00;;;16.40;98.20;;;;;;5052838;28;20960;-84
2023/07/27 04:21:01;;;;;;;1.50;1.10;;;16.30;98.20;;;;;;5044332;28;20493;-85
2023/07/27 04:23:27;;;;;;;1.50;0.90;;;16.30;98.20;;;;;;5045713;28;20494;-85
2023/07/27 04:25:54;;;;;;;1.47;1.00;;;16.20;98.20;;;;;;5037554;28;20481;-85
2023/07/27 04:28:22;;;;;;;1.50;1.00;;;16.20;98.20;;;;;;5047598;28;20979;-82
2023/07/27 04:30:48;;;;;;;1.50;1.00;;;16.10;98.20;;;;;;5046604;28;20490;-82
2023/07/27 04:33:16;;;;;;;1.50;0.97;;;16.10;98.20;;;;;;5039029;28;20462;-82
2023/07/27 04:35:43;;;;;;;1.50;0.90;;;16.10;98.20;;;;;;5057411;28;20813;-83
2023/07/27 04:38:10;;;;;;;1.50;1.10;;;16.10;98.20;;;;;;5039843;28;21036;-82
2023/07/27 04:40:37;;;;;;;1.50;0.90;;;16.10;98.20;;;;;;5059816;28;20500;-83
2023/07/27 04:43:03;;;;;;;1.50;1.00;;;16.10;98.20;;;;;;5038596;28;20483;-83
2023/07/27 04:45:30;;;;;;;1.50;0.90;;;16.00;98.20;;;;;;5061666;28;20461;-84
2023/07/27 04:47:57;;;;;;;1.50;1.00;;;16.00;98.20;;;;;;5037869;28;20485;-83
2023/07/27 04:50:25;;;;;;;1.50;1.00;;;16.00;98.20;;;;;;5056802;28;20490;-81
2023/07/27 04:52:52;;;;;;;1.50;1.00;;;16.10;98.20;;;;;;5039532;28;20504;-83
2023/07/27 04:55:19;;;;;;;1.50;0.90;;;16.00;98.20;;;;;;5062876;28;20463;-83
2023/07/27 04:57:45;;;;;;;1.50;1.00;;;16.10;98.20;;;;;;5042204;28;20485;-82
2023/07/27 05:00:13;;;;;;;1.50;0.90;;;16.10;98.20;;;;;;5060011;28;20834;-83
2023/07/27 05:02:39;;;;;;;1.50;0.90;;;16.10;98.20;;;;;;5043649;28;20498;-81
2023/07/27 05:05:07;;;;;;;1.50;1.00;;;16.10;98.20;;;;;;5056445;28;20974;-79
2023/07/27 05:07:35;;;;;;;1.50;1.00;;;16.10;98.20;;;;;;5038143;28;20831;-79
2023/07/27 05:10:02;;;;;;;1.50;0.93;;;16.10;98.20;;;;;;5052833;28;20669;-79
2023/07/27 05:12:31;;;;;;;1.50;1.00;;;16.00;98.20;;;;;;5036224;28;20485;-77
2023/07/27 05:14:58;;;;;;;1.50;0.90;;;16.00;98.20;;;;;;5055356;28;20462;-78
2023/07/27 05:17:25;;;;;;;1.50;1.00;;;16.00;98.20;;;;;;5039126;28;20486;-80
2023/07/27 05:19:53;;;;;;;1.50;1.00;;;16.00;98.20;;;;;;5059383;28;20764;-79
2023/07/27 05:22:19;;;;;;;1.47;0.93;;;15.90;98.20;;;;;;5039005;28;20492;-80
2023/07/27 05:24:48;;;;;;;1.50;0.90;;;15.80;98.20;;;;;;5048044;28;21085;-79
2023/07/27 05:27:15;;;;;;;1.50;1.00;;;15.80;98.20;;;;;;5041842;28;20509;-79
2023/07/27 05:29:42;;;;;;;1.50;1.10;;;15.80;98.20;;;;;;5051800;28;20462;-79
2023/07/27 05:32:10;;;;;;;1.50;1.00;;;15.80;98.20;;;;;;5040472;28;21023;-78
2023/07/27 05:34:36;;;;;;;1.50;1.00;;;15.80;98.20;;;;;;5054891;28;20866;-78
2023/07/27 05:37:03;;;;;;;1.50;0.90;;;15.80;98.20;;;;;;5033004;28;20483;-79
2023/07/27 05:39:30;;;;;;;1.50;1.00;;;15.70;98.20;;;;;;5049571;28;20735;-77
2023/07/27 05:41:58;;;;;;;1.50;1.00;;;15.70;98.20;;;;;;5036742;28;20494;-79
2023/07/27 05:44:25;;;;;;;1.50;0.90;;;15.70;98.20;;;;;;5047896;28;20465;-78
2023/07/27 05:46:56;;;;;;;1.50;0.90;;;15.70;98.20;;;;;;5046626;28;20494;-78
2023/07/27 05:49:26;;;;;;;1.60;1.17;;;15.70;98.20;;;;;;5044881;28;20457;-78
2023/07/27 05:51:52;;;;;;;2.50;2.30;;;15.70;98.20;;;;;;5031574;28;20498;-79
2023/07/27 05:54:20;;;;;;;1.50;0.93;;;15.70;98.20;;;;;;5043594;28;20454;-78
2023/07/27 05:56:47;;;;;;;1.50;1.00;;;15.70;98.20;;;;;;5034798;28;20561;-79
2023/07/27 05:59:15;;;;;;;1.50;1.00;;;15.80;98.20;;;;;;5044649;28;20541;-80
2023/07/27 06:01:42;;;;;;;1.50;1.00;;;15.70;98.20;;;;;;5040454;28;20493;-80
2023/07/27 06:04:09;;;;;;;1.50;1.00;;;15.70;98.20;;;;;;5048532;28;20547;-78
2023/07/27 06:06:36;;;;;;;1.50;1.00;;;15.70;98.20;;;;;;5034441;28;20478;-79
2023/07/27 06:09:03;;;;;;;1.50;0.90;;;15.70;98.20;;;;;;5043164;28;20469;-80
2023/07/27 06:11:31;;;;;;;1.50;1.00;;;15.70;98.20;;;;;;5034509;28;20474;-78
2023/07/27 06:13:58;;;;;;;1.50;1.00;;;15.70;98.20;;;;;;5039808;28;20458;-80
2023/07/27 06:16:26;;;;;;;1.50;0.90;;;15.70;98.20;;;;;;5035382;28;20714;-77
2023/07/27 06:18:53;;;;;;;1.50;1.00;;;15.80;98.20;;;;;;5045289;28;20466;-79
2023/07/27 06:21:20;;;;;;;1.50;0.97;;;15.80;98.20;;;;;;5037095;28;20573;-80
2023/07/27 06:23:47;;;;;;;1.50;1.00;;;15.80;98.20;;;;;;5044923;28;20465;-79
2023/07/27 06:26:14;;;;;;;1.50;0.93;;;15.80;98.20;;;;;;5037145;28;20512;-79
2023/07/27 06:28:41;;;;;;;1.50;1.00;;;15.90;98.20;;;;;;5042936;28;20541;-80
2023/07/27 06:31:08;;;;;;;1.50;1.00;;;15.90;98.20;;;;;;5038536;28;20484;-80
2023/07/27 06:33:36;;;;;;;1.50;0.90;;;15.90;98.20;;;;;;5043904;28;20468;-80
2023/07/27 06:36:05;;;;;;;1.50;1.00;;;16.00;98.20;;;;;;5041358;28;20492;-82
2023/07/27 06:38:32;;;;;;;1.60;1.30;;;16.00;98.20;;;;;;5044478;28;21315;-81
2023/07/27 06:41:00;;;;;;;1.50;1.00;;;16.00;98.20;;;;;;5037264;28;20482;-80
2023/07/27 06:43:27;;;;;;;1.50;0.90;;;16.00;98.20;;;;;;5042049;28;20458;-79
2023/07/27 06:45:54;;;;;;;1.50;0.90;;;16.00;98.20;;;;;;5037432;28;20462;-80
2023/07/27 06:48:21;;;;;;;1.50;1.00;;;16.00;98.20;;;;;;5040067;28;20458;-80
2023/07/27 06:50:49;;;;;;;1.50;0.90;;;16.00;98.20;;;;;;5045632;28;21008;-80
2023/07/27 06:53:16;;;;;;;1.50;0.93;;;16.00;98.20;;;;;;5049451;28;20481;-80
2023/07/27 06:55:43;;;;;;;1.50;1.00;;;16.10;98.20;;;;;;5048477;28;21077;-80
2023/07/27 06:58:10;;;;;;;1.50;0.93;;;16.10;98.20;;;;;;5032380;28;20522;-80
2023/07/27 07:00:38;;;;;;;1.50;1.00;;;16.10;98.20;;;;;;5049562;28;20722;-83
2023/07/27 07:03:06;;;;;;;1.50;0.90;;;16.10;98.20;;;;;;5036142;28;20490;-81
2023/07/27 07:05:33;;;;;;;1.50;0.90;;;16.10;98.20;;;;;;5060201;28;20505;-81
2023/07/27 07:08:01;;;;;;;1.50;0.90;;;16.10;98.20;;;;;;5040850;28;21112;-81
2023/07/27 07:10:28;;;;;;;1.50;1.10;;;16.20;98.20;;;;;;5056011;28;20840;-80
2023/07/27 07:12:56;;;;;;;1.50;0.90;;;16.20;98.20;;;;;;5039214;28;20848;-80
2023/07/27 07:15:23;;;;;;;1.50;0.90;;;16.30;98.20;;;;;;5049911;28;20531;-80
2023/07/27 07:17:51;;;;;;;1.60;1.20;;;16.30;98.20;;;;;;5037192;28;20494;-81
2023/07/27 07:20:18;;;;;;;1.50;0.90;;;16.40;98.20;;;;;;5050424;28;20479;-80
2023/07/27 07:22:45;;;;;;;1.50;1.00;;;16.40;98.20;;;;;;5040506;28;21088;-80
2023/07/27 07:25:14;;;;;;;1.47;0.90;;;16.50;98.20;;;;;;5049323;28;20490;-80
2023/07/27 07:27:41;;;;;;;1.60;1.30;;;16.40;98.20;;;;;;5029044;28;21105;-80
2023/07/27 07:30:09;;;;;;;1.50;0.90;;;16.40;98.20;;;;;;5049053;28;20483;-79
2023/07/27 07:32:36;;;;;;;1.50;1.00;;;16.40;98.20;;;;;;5045288;28;20486;-79
2023/07/27 07:35:03;;;;;;;1.50;1.00;;;16.50;98.20;;;;;;5060900;28;20457;-79
2023/07/27 07:37:30;;;;;;;1.50;0.90;;;16.50;98.20;;;;;;5030257;28;20482;-80
2023/07/27 07:39:57;;;;;;;1.50;1.00;;;16.50;98.20;;;;;;5051952;28;20468;-80
2023/07/27 07:42:26;;;;;;;1.50;1.00;;;16.50;98.20;;;;;;5030699;28;20490;-79
2023/07/27 07:44:53;;;;;;;1.50;1.10;;;16.60;98.20;;;;;;5051276;28;20470;-79
2023/07/27 07:47:20;;;;;;;1.50;1.00;;;16.60;98.20;;;;;;5038157;28;20477;-80
2023/07/27 07:49:48;;;;;;;1.50;0.90;;;16.70;98.20;;;;;;5050114;28;20935;-80
2023/07/27 07:52:15;;;;;;;1.50;1.00;;;16.70;98.20;;;;;;5031316;28;20613;-79
2023/07/27 07:54:42;;;;;;;1.50;0.90;;;16.70;98.20;;;;;;5045016;28;21044;-80
2023/07/27 07:57:09;;;;;;;1.50;0.90;;;16.80;98.20;;;;;;5058154;28;20469;-81
2023/07/27 07:59:38;;;;;;;1.50;1.00;;;16.80;98.20;;;;;;5054341;28;20473;-80
2023/07/27 08:02:05;;;;;;;1.50;0.90;;;16.80;98.20;;;;;;5036867;28;20771;-81
2023/07/27 08:04:32;;;;;;;1.50;1.00;;;16.90;98.20;;;;;;5049567;28;20461;-81
2023/07/27 08:06:59;;;;;;;1.50;0.90;;;17.00;98.20;;;;;;5042470;28;20950;-80
2023/07/27 08:09:26;;;;;;;1.50;0.90;;;17.00;98.20;;;;;;5053845;28;20470;-81
2023/07/27 08:11:54;;;;;;;1.50;1.00;;;17.10;98.20;;;;;;5039216;28;20489;-81
2023/07/27 08:14:21;;;;;;;1.50;0.90;;;17.10;98.20;;;;;;5053890;28;20469;-80
2023/07/27 08:16:49;;;;;;;1.50;1.00;;;17.20;98.20;;;;;;5033974;28;20525;-80
2023/07/27 08:19:16;;;;;;;1.50;0.90;;;17.20;98.20;;;;;;5050459;28;20468;-78
2023/07/27 08:21:43;;;;;;;1.50;0.97;;;17.20;98.20;;;;;;5042036;28;20912;-79
2023/07/27 08:24:10;;;;;;;1.50;1.00;;;17.30;98.20;;;;;;5052697;28;20466;-79
2023/07/27 08:26:38;;;;;;;1.50;1.10;;;17.30;98.20;;;;;;5039496;28;20474;-79
2023/07/27 08:29:05;;;;;;;1.50;1.00;;;17.30;98.20;;;;;;5049745;28;20461;-78
2023/07/27 08:31:34;;;;;;;1.50;0.90;;;17.30;98.20;;;;;;5040349;28;20624;-79
2023/07/27 08:34:03;;;;;;;1.50;1.00;;;17.40;98.20;;;;;;5046671;28;20462;-81
2023/07/27 08:36:30;;;;;;;1.50;1.00;;;17.40;98.20;;;;;;5037668;28;20571;-80
2023/07/27 08:38:58;;;;;;;1.50;1.00;;;17.40;98.20;;;;;;5048285;28;20627;-80
2023/07/27 08:41:25;;;;;;;1.50;1.00;;;17.40;98.20;;;;;;5042551;28;20489;-80
2023/07/27 08:43:52;;;;;;;1.50;0.90;;;17.40;98.20;;;;;;5045618;28;20450;-81
2023/07/27 08:46:21;;;;;;;1.50;0.97;;;17.40;98.20;;;;;;5041729;28;20498;-81
2023/07/27 08:48:50;;;;;;;1.50;0.90;;;17.40;98.20;;;;;;5051358;28;20454;-79
2023/07/27 08:51:19;;;;;;;1.50;0.90;;;17.30;98.20;;;;;;5043983;28;21143;-80
2023/07/27 08:53:46;;;;;;;1.50;0.90;;;17.30;98.20;;;;;;5056029;28;20458;-78
2023/07/27 08:56:13;;;;;;;1.50;0.90;;;17.40;98.20;;;;;;5045557;28;20473;-79
2023/07/27 08:58:40;;;;;;;1.50;0.97;;;17.40;98.20;;;;;;5054558;28;20585;-79
2023/07/27 09:01:08;;;;;;;1.50;0.90;;;17.50;98.20;;;;;;5043690;28;21405;-79
2023/07/27 09:03:36;;;;;;;1.50;0.90;;;17.50;98.20;;;;;;5046850;28;20467;-79
2023/07/27 09:06:03;;;;;;;1.50;0.90;;;17.60;98.20;;;;;;5042844;28;20560;-79
2023/07/27 09:08:32;;;;;;;1.50;1.00;;;17.70;98.20;;;;;;5055666;28;20987;-80
2023/07/27 09:11:09;;;;;;;1.50;0.90;;;17.70;98.20;;;;;;5042969;28;20478;-80
2023/07/27 09:13:36;;;;;;;1.50;0.90;;;17.80;98.20;;;;;;5045558;28;20834;-80
2023/07/27 09:16:06;;;;;;;1.50;0.90;;;17.80;98.20;;;;;;5042427;28;20466;-80
2023/07/27 09:18:36;;;;;;;1.50;0.90;;;17.90;98.20;;;;;;5054840;28;20482;-80
2023/07/27 09:21:08;;;;;;;1.50;0.90;;;17.90;98.20;;;;;;5044452;28;21282;-79
2023/07/27 09:23:37;;;;;;;1.50;1.00;;;17.90;98.20;;;;;;5053574;28;20494;-80
2023/07/27 09:26:05;;;;;;;1.50;0.90;;;18.00;98.20;;;;;;5041679;28;20478;-79
2023/07/27 09:28:33;;;;;;;1.50;1.00;;;18.00;98.20;;;;;;5054900;28;20827;-79
2023/07/27 09:31:02;;;;;;;1.47;0.90;;;18.00;98.20;;;;;;5040602;28;20505;-79
2023/07/27 09:33:29;;;;;;;1.47;0.90;;;18.10;98.20;;;;;;5044291;28;20546;-78
2023/07/27 09:35:56;;;;;;;1.50;0.90;;;18.10;98.20;;;;;;5042670;28;20557;-79
2023/07/27 09:38:27;;;;;;;1.43;0.90;;;18.10;98.20;;;;;;5055965;28;20489;-78
2023/07/27 09:40:56;;;;;;;1.50;0.90;;;18.10;98.20;;;;;;5059103;28;20511;-80
2023/07/27 09:43:24;;;;;;;1.50;0.90;;;18.20;98.20;;;;;;5046667;28;20884;-80
2023/07/27 09:45:58;;;;;;;1.50;0.90;;;18.20;98.20;;;;;;5044765;28;20465;-80
2023/07/27 09:48:26;;;;;;;1.50;0.90;;;18.20;98.20;;;;;;5047743;28;20454;-79
2023/07/27 09:50:55;;;;;;;1.50;0.90;;;18.20;98.20;;;;;;5045146;28;20498;-79
2023/07/27 09:53:22;;;;;;;1.50;0.90;;;18.30;98.20;;;;;;5045104;28;20462;-79
2023/07/27 09:55:50;;;;;;;1.50;0.90;;;18.30;98.20;;;;;;5043269;28;20630;-80
2023/07/27 09:58:20;;;;;;;1.50;1.10;;;18.30;98.20;;;;;;5043801;28;20486;-79
2023/07/27 10:00:47;;;;;;;1.50;1.00;;;18.40;98.20;;;;;;5051364;28;20477;-79
2023/07/27 10:03:15;;;;;;;1.50;0.90;;;18.40;98.20;;;;;;5049840;28;20632;-79
2023/07/27 10:05:44;;;;;;;1.50;0.90;;;18.40;98.20;;;;;;5053976;28;20537;-79
2023/07/27 10:08:11;;;;;;;1.50;0.90;;;18.50;98.20;;;;;;5027736;28;20976;-79
2023/07/27 10:10:40;;;;;;;1.50;1.00;;;18.50;98.20;;;;;;5054991;28;20672;-79
2023/07/27 10:13:11;;;;;;;1.50;0.90;;;18.60;98.20;;;;;;5025558;28;20852;-79
2023/07/27 10:15:44;;;;;;;1.50;0.90;;;18.60;98.20;;;;;;5049017;28;20473;-79
2023/07/27 10:18:14;;;;;;;1.50;0.90;;;18.60;98.20;;;;;;5023234;28;20494;-79
2023/07/27 10:20:41;;;;;;;1.50;0.90;;;18.70;98.20;;;;;;5051175;28;20478;-79
2023/07/27 10:23:13;;;;;;;1.50;0.90;;;18.70;98.20;;;;;;5026717;28;20477;-79
2023/07/27 10:26:07;;;;;;;1.50;0.90;;;18.70;98.20;;;;;;5051462;28;21075;-79
2023/07/27 10:28:50;;;;;;;1.50;0.90;;;18.70;98.20;;;;;;4993307;28;20466;-79
2023/07/27 10:31:23;;;;;;;1.90;1.50;;;18.80;98.20;;;;;;5036094;28;20909;-78
2023/07/27 10:33:55;;;;;;;1.50;0.90;;;18.80;98.20;;;;;;5047234;28;20527;-78
2023/07/27 10:36:24;;;;;;;1.50;0.90;;;18.90;98.20;;;;;;5037917;28;20943;-79
2023/07/27 10:38:53;;;;;;;1.50;0.90;;;18.90;98.20;;;;;;5048893;28;20991;-80
2023/07/27 10:41:22;;;;;;;1.50;0.90;;;19.00;98.20;;;;;;5042040;28;20488;-79
2023/07/27 10:44:18;;;;;;;1.50;1.00;;;19.00;98.20;;;;;;5051927;28;20824;-79
2023/07/27 10:46:54;;;;;;;1.50;1.00;;;19.10;98.20;;;;;;5040575;28;20509;-79
2023/07/27 10:49:22;;;;;;;1.50;0.90;;;19.10;98.20;;;;;;5056366;28;20486;-79
2023/07/27 10:51:50;;;;;;;1.50;0.90;;;19.10;98.20;;;;;;5045216;28;20485;-80
2023/07/27 10:54:17;;;;;;;1.50;0.90;;;19.10;98.20;;;;;;5050308;28;20498;-79
2023/07/27 10:56:45;;;;;;;1.50;0.90;;;19.10;98.20;;;;;;5041692;28;20541;-80
2023/07/27 10:59:14;;;;;;;1.50;0.90;;;19.20;98.20;;;;;;5051008;28;20482;-77
2023/07/27 11:01:41;;;;;;;1.50;0.90;;;19.30;98.20;;;;;;5035103;28;20570;-77
2023/07/27 11:04:11;;;;;;;1.50;0.90;;;19.40;98.20;;;;;;5046385;28;20548;-78
2023/07/27 11:06:43;;;;;;;1.47;0.90;;;19.50;98.20;;;;;;5035737;28;20541;-78
2023/07/27 11:09:15;;;;;;;1.50;0.90;;;19.60;98.20;;;;;;5048195;28;20454;-78
2023/07/27 11:11:42;;;;;;;1.50;0.90;;;19.70;98.20;;;;;;5036995;28;20932;-79
2023/07/27 11:14:10;;;;;;;1.50;0.90;;;19.80;98.20;;;;;;5043751;28;20462;-79
2023/07/27 11:16:38;;;;;;;1.50;0.90;;;19.90;98.20;;;;;;5035932;28;20490;-78
2023/07/27 11:19:17;;;;;;;1.50;0.90;;;19.90;98.20;;;;;;5049924;28;20504;-82
2023/07/27 11:22:35;;;;;;;1.50;0.90;;;19.90;98.20;;;;;;5042364;28;20513;-81
2023/07/27 11:25:04;;;;;;;1.50;1.00;;;19.90;98.20;;;;;;5014818;28;20999;-78
2023/07/27 11:27:31;;;;;;;1.50;0.90;;;20.10;98.20;;;;;;5027296;28;20487;-78
2023/07/27 11:30:00;;;;;;;1.50;0.90;;;20.30;98.20;;;;;;5047390;28;20466;-78
2023/07/27 11:32:27;;;;;;;1.50;0.90;;;20.50;98.20;;;;;;5037985;28;20928;-79
2023/07/27 11:34:56;;;;;;;1.50;0.90;;;20.70;98.20;;;;;;5044596;28;20887;-79
2023/07/27 11:37:26;;;;;;;1.50;0.90;;;20.80;98.20;;;;;;5026328;28;20571;-78
2023/07/27 11:39:53;;;;;;;1.50;1.00;;;20.90;98.20;;;;;;5044836;28;20664;-79
2023/07/27 11:42:28;;;;;;;1.50;0.90;;;21.00;98.20;;;;;;5037920;28;20570;-80
2023/07/27 11:45:35;;;;;;;;;;;;;;;;;;;;;
2023/07/27 11:48:04;;;;;;;1.73;1.40;;;21.30;98.20;;;;;;5019716;28;20996;-80
2023/07/27 11:50:34;;;;;;;1.50;0.90;;;21.30;98.20;;;;;;5046010;28;20555;-79
2023/07/27 11:53:03;;;;;;;1.50;0.90;;;21.40;98.20;;;;;;5034756;28;21290;-78
2023/07/27 11:55:32;;;;;;;1.50;0.90;;;21.40;98.20;;;;;;5047643;28;20500;-79
2023/07/27 11:58:00;;;;;;;1.50;0.90;;;21.40;98.20;;;;;;5023989;28;20489;-78
2023/07/27 12:00:28;;;;;;;1.60;1.17;;;21.40;98.20;;;;;;5045854;28;20988;-78
2023/07/27 12:02:55;;;;;;;1.50;0.90;;;21.50;98.20;;;;;;5036965;28;20845;-80
2023/07/27 12:05:23;;;;;;;1.50;0.90;;;21.50;98.20;;;;;;5046084;28;20462;-79
2023/07/27 12:07:51;;;;;;;2.03;1.83;;;21.50;98.20;;;;;;5030520;28;20482;-78
2023/07/27 12:10:19;;;;;;;1.50;0.90;;;21.50;98.20;;;;;;5047412;28;20467;-79
2023/07/27 12:12:52;;;;;;;1.50;0.90;;;21.40;98.20;;;;;;5038504;28;20518;-79
2023/07/27 12:15:28;;;;;;;1.50;0.80;;;21.40;98.20;;;;;;5050771;28;20450;-78
2023/07/27 12:17:57;;;;;;;1.50;0.90;;;21.40;98.20;;;;;;5037755;28;20482;-80
2023/07/27 12:20:25;;;;;;;1.50;0.90;;;21.40;98.20;;;;;;5047053;28;20500;-78
2023/07/27 12:22:52;;;;;;;1.50;0.90;;;21.40;98.20;;;;;;5039466;28;20564;-80
2023/07/27 12:25:19;;;;;;;1.50;0.90;;;21.40;98.20;;;;;;5051663;28;20520;-79
2023/07/27 12:27:46;;;;;;;1.50;0.80;;;21.40;98.20;;;;;;5028170;28;20724;-79
2023/07/27 12:30:14;;;;;;;1.50;0.83;;;21.30;98.20;;;;;;5048168;28;20968;-79
2023/07/27 12:32:43;;;;;;;1.50;0.90;;;21.20;98.20;;;;;;5026420;28;20513;-79
2023/07/27 12:35:10;;;;;;;1.50;0.90;;;21.10;98.20;;;;;;5045873;28;20494;-81
2023/07/27 12:37:37;;;;;;;1.50;0.90;;;21.00;98.20;;;;;;5029997;28;20688;-80
2023/07/27 12:40:05;;;;;;;1.50;0.90;;;20.80;98.20;;;;;;5048736;28;20490;-80
2023/07/27 12:42:33;;;;;;;1.50;0.90;;;20.80;98.20;;;;;;5029371;28;20490;-81
2023/07/27 12:45:00;;;;;;;1.50;0.90;;;20.70;98.20;;;;;;5055789;28;20469;-80
2023/07/27 12:47:26;;;;;;;1.50;0.90;;;20.60;98.20;;;;;;5045430;28;20473;-79
2023/07/27 12:49:55;;;;;;;1.50;0.90;;;20.50;98.20;;;;;;5052908;28;20537;-80
2023/07/27 12:52:22;;;;;;;1.50;0.90;;;20.50;98.20;;;;;;5042037;28;20613;-78
2023/07/27 12:54:48;;;;;;;1.50;0.90;;;20.40;98.20;;;;;;5048993;28;20544;-79
2023/07/27 12:57:15;;;;;;;1.50;0.90;;;20.30;98.20;;;;;;5029520;28;20486;-78